LPMALPHR

Guest
Details From LPMA - Madeira
To LPHR - HORTA
Flight Number -
Tags generated
Created
Modified
Stats Distance 684 nm / 1,268 km
Max Altitude 34,000 ft / 10,363 m
Waypoints 8
Social Downloads 3
Likes 0
Share VATSIM

Download

Looking for another format? Having issues loading an existing format? Contact us
Advertisement - Login to hide

Notes

Basic altitude profile: - Ascent Rate: 2500ft/min - Ascent Speed: 250kts - Cruise Altitude: 35000ft - Cruise Speed: 420kts - Descent Rate: 1500ft/min - Descent Speed: 250kts Options: - Use NATs: yes - Use PACOTS: yes - Use low airways: yes - Use high airways: yes

Route

LPMA IRKID 3500N02000W ETROX H104 VSM H101 VFL26 LPHR

ID Type Via Altitude Latitude Longitude Leg Dist Tot Dist Heading (true) Name
O LPMA APT - 0 ft / 0 m 32.69770˚ -16.77445˚ - 0 nm - Madeira
IRKID FIX - 34,000 ft / 10,363 m 33.92500˚ -18.06917˚ 98 nm 98 nm 319° / 318° -
3500N02000W LATLON - 34,000 ft / 10,363 m 35.00000˚ -20.00000˚ 115 nm 213 nm 305° / 303° -
ETROX FIX - 34,000 ft / 10,363 m 36.40250˚ -24.02444˚ 213 nm 427 nm 294° / 292° -
VSM VOR H104 (AWY-HI) 28,500 ft / 8,687 m 36.96278˚ -25.16639˚ 64 nm 491 nm 302° / 301° SANTA MARIA VOR-DME
RODIL FIX H101 (AWY-HI) 12,500 ft / 3,810 m 38.07889˚ -27.60667˚ 134 nm 625 nm 301° / 299° -
VFL26 FIX H101 (AWY-LO) 6,100 ft / 1,859 m 38.31790˚ -28.15917˚ 29 nm 655 nm 299° / 299° -
O LPHR APT - 0 ft / 0 m 38.51990˚ -28.71579˚ 28 nm 684 nm 295° / 295° HORTA

Altitude Profile

Advertisement - Login to hide

Weather


0- 5 10 15 20 25 30 35+ Temperature / ° C

Clouds and Precipitation
Forecast for 2017-12-18 18:00 UTC. Updated 2 hours ago

Ground ~20,000 ft ~40,000 ft Winds

LPMA

Details ICAO LPMA (FNC)
Name Madeira
Region Portugal
Timezone Atlantic/Madeira (UTC+0.0)
Stats Elevation 192 ft / 59 m (AMSL)
Location 32.697704° -16.774449°
Runways 1
Magnetic Variation 4.980° W

METAR

LPMA 181700Z 02010KT 340V050 9999 BKN025 17/10 Q1028

Decode

TAF

TAF LPMA 181100Z 1812/1912 02012KT 9999 SCT015 SCT030 PROB40 TEMPO 1812/1912 BKN015

Decode

Departure Runways

ID Width Length Bearing (true) Bearing (mag) Surface Threshold Offset Overrun Length
05 141 ft / 43 m 8,683 ft / 2,647 m 42.98° 47.96° Asphalt 472 ft / 144 m 0 ft / 0 m
23 141 ft / 43 m 8,683 ft / 2,647 m 222.99° 227.97° Asphalt 466 ft / 142 m 0 ft / 0 m

LPHR

Details ICAO LPHR (HOR)
Name HORTA
Region Portugal
Timezone Atlantic/Azores (UTC-1.0)
Stats Elevation 118 ft / 36 m (AMSL)
Location 38.519898° -28.715795°
Runways 1
Magnetic Variation 9.509° W

METAR

LPHR 181700Z 18014KT 9999 FEW014 SCT040 19/17 Q1023

Decode

TAF

Not found

Destination Runways

ID Width Length Bearing (true) Bearing (mag) Surface Threshold Offset Overrun Length
10 148 ft / 45 m 4,990 ft / 1,521 m 89.70° 99.21° Asphalt 0 ft / 0 m 180 ft / 55 m
28 148 ft / 45 m 4,990 ft / 1,521 m 269.71° 279.22° Asphalt 0 ft / 0 m 180 ft / 55 m

Popular Alternatives